createdAt,value
2022-10-19T04:19:32.455Z,100913.50
2022-10-19T04:22:35.435Z,100918.19
2022-10-19T04:25:38.054Z,100916.88
2022-10-19T04:28:41.209Z,100922.28
2022-10-19T04:31:43.907Z,100929.00
2022-10-19T04:34:46.664Z,100918.78
2022-10-19T04:37:49.107Z,100924.31
2022-10-19T04:40:52.460Z,100919.63
2022-10-19T04:43:57.964Z,100920.28
2022-10-19T04:47:00.761Z,100918.63
2022-10-19T04:50:03.582Z,100917.59
2022-10-19T04:53:06.479Z,100918.44
2022-10-19T04:56:13.968Z,100922.34
2022-10-19T04:59:16.667Z,100911.37
2022-10-19T05:02:19.152Z,100925.03
2022-10-19T05:05:21.938Z,100920.50
2022-10-19T05:08:24.596Z,100915.78
2022-10-19T05:11:28.095Z,100925.06
2022-10-19T05:14:35.042Z,100927.41
2022-10-19T05:17:39.522Z,100924.87
2022-10-19T05:20:42.169Z,100917.66
2022-10-19T05:23:52.520Z,100921.53
2022-10-19T05:26:55.041Z,100937.03
2022-10-19T05:29:57.900Z,100935.69
2022-10-19T05:33:00.460Z,100942.09
2022-10-19T05:36:15.587Z,100946.66
2022-10-19T05:39:18.638Z,100952.69
2022-10-19T05:42:21.394Z,100962.97
2022-10-19T05:45:23.920Z,100971.41
2022-10-19T05:48:27.996Z,100971.91
2022-10-19T05:51:30.738Z,100965.00
2022-10-19T05:54:33.548Z,100969.72
2022-10-19T05:57:36.437Z,100967.16
2022-10-19T06:00:42.865Z,100969.22
2022-10-19T06:03:47.191Z,100979.47
2022-10-19T06:06:49.700Z,100982.34
2022-10-19T06:09:52.611Z,100992.78
2022-10-19T06:12:55.190Z,100982.47
2022-10-19T06:15:57.947Z,100985.22
2022-10-19T06:19:00.499Z,100999.37
2022-10-19T06:22:03.620Z,100998.00
2022-10-19T06:25:06.738Z,100995.56
2022-10-19T06:28:10.245Z,100999.75
2022-10-19T06:31:13.556Z,101004.47
2022-10-19T06:34:16.559Z,101004.56
2022-10-19T06:37:19.314Z,101009.06
2022-10-19T06:40:23.021Z,101012.38
2022-10-19T06:43:25.754Z,101018.78
2022-10-19T06:46:28.586Z,101012.78
2022-10-19T06:49:31.245Z,101018.97
2022-10-19T06:52:35.667Z,101024.63
2022-10-19T06:55:38.363Z,101035.84
2022-10-19T06:58:42.631Z,101033.37
2022-10-19T07:01:45.274Z,101028.19
2022-10-19T07:04:48.093Z,101042.06
2022-10-19T07:07:50.692Z,101043.13
2022-10-19T07:10:59.177Z,101043.31
2022-10-19T07:14:01.820Z,101061.06
2022-10-19T07:17:10.853Z,101066.41
2022-10-19T07:20:13.514Z,101064.16
2022-10-19T07:23:16.340Z,101061.84
2022-10-19T07:26:23.407Z,101076.44
2022-10-19T07:29:26.586Z,101080.91
2022-10-19T07:32:29.425Z,101081.56
2022-10-19T07:35:32.496Z,101074.13
2022-10-19T07:38:35.375Z,101073.78
2022-10-19T07:41:38.570Z,101082.50
2022-10-19T07:44:41.077Z,101080.63
2022-10-19T07:47:43.829Z,101083.91
2022-10-19T07:50:49.170Z,101079.19
2022-10-19T07:53:53.440Z,101055.94
2022-10-19T07:56:56.100Z,101059.12
2022-10-19T07:59:58.987Z,101065.62
2022-10-19T08:03:57.519Z,101064.53
2022-10-19T08:06:27.635Z,101065.47
2022-10-19T08:12:53.300Z,101058.31
2022-10-19T08:15:55.850Z,101054.97
2022-10-19T08:19:06.374Z,101060.94
2022-10-19T08:22:09.508Z,101054.50
2022-10-19T08:25:14.733Z,101057.59
2022-10-19T08:28:17.300Z,101063.50
2022-10-19T08:31:22.464Z,101061.69
2022-10-19T08:34:25.396Z,101058.16
2022-10-19T08:41:40.090Z,101058.84
2022-10-19T08:44:55.016Z,101057.69
2022-10-19T08:56:51.305Z,101059.88
2022-10-19T10:28:47.110Z,101001.69
2022-10-19T10:31:58.910Z,101007.38
2022-10-19T10:35:18.618Z,101004.78
2022-10-19T10:38:33.289Z,100993.53
2022-10-19T10:41:40.746Z,100991.00
2022-10-19T10:44:50.722Z,100992.16
2022-10-19T10:47:53.907Z,100994.25
2022-10-19T10:50:59.316Z,100989.84
2022-10-19T10:54:20.081Z,100998.28
2022-10-19T10:57:25.719Z,100990.06
2022-10-19T11:00:31.548Z,100982.41
2022-10-19T11:03:46.424Z,100973.16
2022-10-19T11:06:57.157Z,100966.94
2022-10-19T11:10:09.817Z,100971.75
2022-10-19T11:13:45.271Z,100962.41
2022-10-19T11:16:52.317Z,100962.19
2022-10-19T11:19:55.114Z,100947.69
2022-10-19T11:23:20.356Z,100952.50
2022-10-19T11:26:47.707Z,100950.16
2022-10-19T11:30:17.845Z,100948.94
2022-10-19T11:33:31.923Z,100943.66
2022-10-19T11:36:57.267Z,100938.72
2022-10-19T11:40:13.848Z,100938.37
2022-10-19T11:43:46.164Z,100941.03
2022-10-19T11:46:54.848Z,100936.22
2022-10-19T11:50:16.929Z,100933.62
2022-10-19T11:53:28.701Z,100937.06
2022-10-19T11:56:51.501Z,100930.00
2022-10-19T12:00:39.120Z,100922.22
2022-10-19T12:03:54.725Z,100922.19
2022-10-19T12:07:28.598Z,100918.59
2022-10-19T12:11:07.499Z,100927.41
2022-10-19T12:14:22.154Z,100927.28
2022-10-19T12:17:31.166Z,100900.19
2022-10-19T12:20:51.008Z,100900.19
2022-10-19T12:23:56.144Z,100901.25
2022-10-19T12:27:00.268Z,100902.78
2022-10-19T12:30:08.394Z,100903.25
2022-10-19T12:33:20.650Z,100890.53
2022-10-19T12:36:32.125Z,100894.75
2022-10-19T12:39:37.475Z,100902.47
2022-10-19T12:43:11.056Z,100893.38
2022-10-19T12:46:29.500Z,100892.91
2022-10-19T12:49:45.836Z,100880.97
2022-10-19T12:52:52.297Z,100884.37
2022-10-19T12:56:06.156Z,100885.44
2022-10-19T12:59:33.533Z,100885.03
2022-10-19T13:02:40.153Z,100883.81
2022-10-19T13:05:42.793Z,100871.59
2022-10-19T13:08:57.609Z,100876.91
2022-10-19T13:12:19.571Z,100868.91
2022-10-19T13:15:34.346Z,100871.66
2022-10-19T13:19:03.944Z,100863.09
2022-10-19T13:22:33.391Z,100872.00
2022-10-19T13:25:37.757Z,100860.53
2022-10-19T13:28:53.307Z,100861.44
2022-10-19T13:31:55.875Z,100878.63
2022-10-19T13:35:38.674Z,100874.28
2022-10-19T13:38:59.594Z,100888.81
2022-10-19T13:42:02.785Z,100894.53
2022-10-19T13:45:05.818Z,100881.66
2022-10-19T13:48:34.911Z,100887.34
2022-10-19T13:51:49.606Z,100896.34
2022-10-19T13:55:10.966Z,100895.78
2022-10-19T13:58:51.116Z,100893.91
2022-10-19T14:02:23.758Z,100890.53
2022-10-19T14:05:41.396Z,100886.19
2022-10-19T14:09:05.912Z,100893.91
2022-10-19T14:12:16.551Z,100892.03
2022-10-19T14:15:28.654Z,100888.50
2022-10-19T14:18:33.998Z,100889.78
2022-10-19T14:21:37.063Z,100893.94
2022-10-19T14:24:39.900Z,100886.41
2022-10-19T14:27:42.936Z,100895.19
2022-10-19T14:30:55.155Z,100896.03
2022-10-19T14:34:02.657Z,100897.09
2022-10-19T14:37:13.120Z,100903.34
2022-10-19T14:40:26.557Z,100896.03
2022-10-19T14:43:32.724Z,100895.59
2022-10-19T14:46:35.444Z,100890.56
2022-10-19T14:49:38.435Z,100891.19
2022-10-19T14:52:41.614Z,100899.69
2022-10-19T14:55:45.030Z,100887.97
2022-10-19T14:58:55.960Z,100894.22
2022-10-19T15:02:03.857Z,100887.31
2022-10-19T15:05:19.208Z,100876.81
2022-10-19T15:08:48.621Z,100887.25
2022-10-19T15:11:53.606Z,100884.91
2022-10-19T15:14:57.828Z,100886.16
2022-10-19T15:18:00.365Z,100885.88
2022-10-19T15:21:18.418Z,100885.63
2022-10-19T15:24:29.895Z,100885.97
2022-10-19T15:27:36.995Z,100898.91
2022-10-19T15:30:41.302Z,100903.41
2022-10-19T15:33:51.467Z,100897.00
2022-10-19T15:36:59.282Z,100899.88
2022-10-19T15:40:10.339Z,100880.25
2022-10-19T15:43:32.920Z,100877.69
2022-10-19T15:47:12.427Z,100886.56
2022-10-19T15:50:32.423Z,100898.34
2022-10-19T15:53:35.142Z,100913.06
